sensor_id;sensor_type;location;lat;lon;timestamp;temperature;humidity
44729;DHT22;30457;53.590;9.922;2023-12-20T00:03:29;10.30;65.30
44729;DHT22;30457;53.590;9.922;2023-12-20T00:07:54;10.30;65.30
44729;DHT22;30457;53.590;9.922;2023-12-20T00:12:20;10.20;65.30
44729;DHT22;30457;53.590;9.922;2023-12-20T00:16:45;10.20;65.40
44729;DHT22;30457;53.590;9.922;2023-12-20T00:21:11;10.10;65.40
44729;DHT22;30457;53.590;9.922;2023-12-20T00:25:37;10.10;65.50
44729;DHT22;30457;53.590;9.922;2023-12-20T00:30:02;10.00;65.60
44729;DHT22;30457;53.590;9.922;2023-12-20T00:34:28;10.00;65.80
44729;DHT22;30457;53.590;9.922;2023-12-20T00:38:54;10.00;65.90
44729;DHT22;30457;53.590;9.922;2023-12-20T00:43:19;10.00;65.90
44729;DHT22;30457;53.590;9.922;2023-12-20T00:47:45;10.00;66.00
44729;DHT22;30457;53.590;9.922;2023-12-20T00:52:10;10.00;66.10
44729;DHT22;30457;53.590;9.922;2023-12-20T00:56:36;10.00;66.20
44729;DHT22;30457;53.590;9.922;2023-12-20T01:01:02;10.00;66.20
44729;DHT22;30457;53.590;9.922;2023-12-20T01:05:27;10.00;66.20
44729;DHT22;30457;53.590;9.922;2023-12-20T01:09:53;10.00;66.00
44729;DHT22;30457;53.590;9.922;2023-12-20T01:14:19;10.00;65.90
44729;DHT22;30457;53.590;9.922;2023-12-20T01:18:44;9.90;65.60
44729;DHT22;30457;53.590;9.922;2023-12-20T01:23:10;9.90;65.60
44729;DHT22;30457;53.590;9.922;2023-12-20T01:27:36;9.80;65.60
44729;DHT22;30457;53.590;9.922;2023-12-20T01:32:01;9.80;65.60
44729;DHT22;30457;53.590;9.922;2023-12-20T01:36:27;9.80;65.50
44729;DHT22;30457;53.590;9.922;2023-12-20T01:40:52;9.70;65.60
44729;DHT22;30457;53.590;9.922;2023-12-20T01:45:18;9.70;65.70
44729;DHT22;30457;53.590;9.922;2023-12-20T01:49:43;9.60;65.70
44729;DHT22;30457;53.590;9.922;2023-12-20T01:54:09;9.60;65.80
44729;DHT22;30457;53.590;9.922;2023-12-20T01:58:39;9.60;66.00
44729;DHT22;30457;53.590;9.922;2023-12-20T02:03:08;9.50;66.10
44729;DHT22;30457;53.590;9.922;2023-12-20T02:07:34;9.50;66.30
44729;DHT22;30457;53.590;9.922;2023-12-20T02:12:00;9.50;66.30
44729;DHT22;30457;53.590;9.922;2023-12-20T02:16:26;9.50;66.30
44729;DHT22;30457;53.590;9.922;2023-12-20T02:20:51;9.50;66.30
44729;DHT22;30457;53.590;9.922;2023-12-20T02:25:17;9.50;66.30
44729;DHT22;30457;53.590;9.922;2023-12-20T02:29:42;9.50;66.40
44729;DHT22;30457;53.590;9.922;2023-12-20T02:34:08;9.40;66.50
44729;DHT22;30457;53.590;9.922;2023-12-20T02:38:33;9.50;66.70
44729;DHT22;30457;53.590;9.922;2023-12-20T02:42:59;9.50;66.70
44729;DHT22;30457;53.590;9.922;2023-12-20T02:47:25;9.50;66.90
44729;DHT22;30457;53.590;9.922;2023-12-20T02:51:50;9.50;66.80
44729;DHT22;30457;53.590;9.922;2023-12-20T02:56:16;9.50;66.90
44729;DHT22;30457;53.590;9.922;2023-12-20T03:00:41;9.50;67.00
44729;DHT22;30457;53.590;9.922;2023-12-20T03:05:07;9.50;67.00
44729;DHT22;30457;53.590;9.922;2023-12-20T03:09:33;9.60;67.10
44729;DHT22;30457;53.590;9.922;2023-12-20T03:13:59;9.60;66.90
44729;DHT22;30457;53.590;9.922;2023-12-20T03:18:24;9.60;66.80
44729;DHT22;30457;53.590;9.922;2023-12-20T03:22:50;9.60;66.60
44729;DHT22;30457;53.590;9.922;2023-12-20T03:27:15;9.60;66.60
44729;DHT22;30457;53.590;9.922;2023-12-20T03:31:41;9.60;66.60
44729;DHT22;30457;53.590;9.922;2023-12-20T03:36:06;9.60;66.60
44729;DHT22;30457;53.590;9.922;2023-12-20T03:40:32;9.60;66.60
44729;DHT22;30457;53.590;9.922;2023-12-20T03:44:57;9.60;66.40
44729;DHT22;30457;53.590;9.922;2023-12-20T03:49:23;9.60;66.60
44729;DHT22;30457;53.590;9.922;2023-12-20T03:53:48;9.60;66.60
44729;DHT22;30457;53.590;9.922;2023-12-20T03:58:14;9.60;66.60
44729;DHT22;30457;53.590;9.922;2023-12-20T04:02:41;9.60;66.60
44729;DHT22;30457;53.590;9.922;2023-12-20T04:07:07;9.60;66.60
44729;DHT22;30457;53.590;9.922;2023-12-20T04:11:32;9.60;66.70
44729;DHT22;30457;53.590;9.922;2023-12-20T04:15:58;9.60;66.80
44729;DHT22;30457;53.590;9.922;2023-12-20T04:20:23;9.60;66.70
44729;DHT22;30457;53.590;9.922;2023-12-20T04:24:49;9.60;66.70
44729;DHT22;30457;53.590;9.922;2023-12-20T04:29:14;9.60;66.80
44729;DHT22;30457;53.590;9.922;2023-12-20T04:33:40;9.60;66.70
44729;DHT22;30457;53.590;9.922;2023-12-20T04:38:05;9.60;66.60
44729;DHT22;30457;53.590;9.922;2023-12-20T04:42:31;9.60;66.60
44729;DHT22;30457;53.590;9.922;2023-12-20T04:46:56;9.60;66.50
44729;DHT22;30457;53.590;9.922;2023-12-20T04:51:22;9.60;66.50
44729;DHT22;30457;53.590;9.922;2023-12-20T04:55:48;9.60;66.50
44729;DHT22;30457;53.590;9.922;2023-12-20T05:00:14;9.60;66.50
44729;DHT22;30457;53.590;9.922;2023-12-20T05:04:40;9.60;66.40
44729;DHT22;30457;53.590;9.922;2023-12-20T05:09:07;9.60;66.60
44729;DHT22;30457;53.590;9.922;2023-12-20T05:13:32;9.60;66.70
44729;DHT22;30457;53.590;9.922;2023-12-20T05:17:58;9.70;66.80
44729;DHT22;30457;53.590;9.922;2023-12-20T05:22:23;9.60;66.70
44729;DHT22;30457;53.590;9.922;2023-12-20T05:26:49;9.60;66.70
44729;DHT22;30457;53.590;9.922;2023-12-20T05:31:15;9.70;66.80
44729;DHT22;30457;53.590;9.922;2023-12-20T05:35:40;9.70;66.80
44729;DHT22;30457;53.590;9.922;2023-12-20T05:40:06;9.70;66.90
44729;DHT22;30457;53.590;9.922;2023-12-20T05:44:32;9.70;66.90
44729;DHT22;30457;53.590;9.922;2023-12-20T05:48:58;9.70;67.10
44729;DHT22;30457;53.590;9.922;2023-12-20T05:53:23;9.70;67.10
44729;DHT22;30457;53.590;9.922;2023-12-20T05:57:49;9.80;67.10
44729;DHT22;30457;53.590;9.922;2023-12-20T06:02:14;9.80;67.10
44729;DHT22;30457;53.590;9.922;2023-12-20T06:06:41;9.80;67.10
44729;DHT22;30457;53.590;9.922;2023-12-20T06:11:07;9.80;67.10
44729;DHT22;30457;53.590;9.922;2023-12-20T06:15:33;9.80;67.00
44729;DHT22;30457;53.590;9.922;2023-12-20T06:19:59;9.80;66.90
44729;DHT22;30457;53.590;9.922;2023-12-20T06:24:25;9.80;66.90
44729;DHT22;30457;53.590;9.922;2023-12-20T06:28:53;9.80;66.70
44729;DHT22;30457;53.590;9.922;2023-12-20T06:33:18;9.80;66.70
44729;DHT22;30457;53.590;9.922;2023-12-20T06:37:45;9.80;66.70
44729;DHT22;30457;53.590;9.922;2023-12-20T06:42:10;9.80;66.80
44729;DHT22;30457;53.590;9.922;2023-12-20T06:46:36;9.80;66.90
44729;DHT22;30457;53.590;9.922;2023-12-20T06:51:02;9.80;66.90
44729;DHT22;30457;53.590;9.922;2023-12-20T06:55:27;9.90;66.90
44729;DHT22;30457;53.590;9.922;2023-12-20T06:59:53;9.90;66.80
44729;DHT22;30457;53.590;9.922;2023-12-20T07:04:19;9.90;66.70
44729;DHT22;30457;53.590;9.922;2023-12-20T07:08:47;9.90;66.70
44729;DHT22;30457;53.590;9.922;2023-12-20T07:13:13;9.90;66.60
44729;DHT22;30457;53.590;9.922;2023-12-20T07:17:39;9.90;66.50
44729;DHT22;30457;53.590;9.922;2023-12-20T07:22:05;9.90;66.50
44729;DHT22;30457;53.590;9.922;2023-12-20T07:26:31;9.90;66.50
44729;DHT22;30457;53.590;9.922;2023-12-20T07:30:57;9.90;66.60
44729;DHT22;30457;53.590;9.922;2023-12-20T07:35:23;9.90;66.60
44729;DHT22;30457;53.590;9.922;2023-12-20T07:39:50;9.90;66.50
44729;DHT22;30457;53.590;9.922;2023-12-20T07:44:16;10.00;66.60
44729;DHT22;30457;53.590;9.922;2023-12-20T07:48:41;10.00;66.70
44729;DHT22;30457;53.590;9.922;2023-12-20T07:53:07;10.00;66.70
44729;DHT22;30457;53.590;9.922;2023-12-20T07:57:33;10.00;66.50
44729;DHT22;30457;53.590;9.922;2023-12-20T08:01:58;10.00;66.40
44729;DHT22;30457;53.590;9.922;2023-12-20T08:06:24;10.00;66.40
44729;DHT22;30457;53.590;9.922;2023-12-20T08:10:49;10.10;66.30
44729;DHT22;30457;53.590;9.922;2023-12-20T08:15:15;10.10;66.30
44729;DHT22;30457;53.590;9.922;2023-12-20T08:19:40;10.20;66.40
44729;DHT22;30457;53.590;9.922;2023-12-20T08:24:07;10.20;66.30
44729;DHT22;30457;53.590;9.922;2023-12-20T08:28:33;10.20;66.40
44729;DHT22;30457;53.590;9.922;2023-12-20T08:33:00;10.20;66.40
44729;DHT22;30457;53.590;9.922;2023-12-20T08:37:25;10.20;66.30
44729;DHT22;30457;53.590;9.922;2023-12-20T08:41:51;10.30;66.30
44729;DHT22;30457;53.590;9.922;2023-12-20T08:46:17;10.30;66.30
44729;DHT22;30457;53.590;9.922;2023-12-20T08:50:42;10.30;66.30
44729;DHT22;30457;53.590;9.922;2023-12-20T08:55:09;10.40;66.50
44729;DHT22;30457;53.590;9.922;2023-12-20T08:59:35;10.40;66.30
44729;DHT22;30457;53.590;9.922;2023-12-20T09:04:01;10.40;66.30
44729;DHT22;30457;53.590;9.922;2023-12-20T09:08:26;10.40;66.30
44729;DHT22;30457;53.590;9.922;2023-12-20T09:12:53;10.40;65.90
44729;DHT22;30457;53.590;9.922;2023-12-20T09:17:21;10.40;66.10
44729;DHT22;30457;53.590;9.922;2023-12-20T09:21:48;10.30;66.20
44729;DHT22;30457;53.590;9.922;2023-12-20T09:26:13;10.30;66.10
44729;DHT22;30457;53.590;9.922;2023-12-20T09:30:39;10.30;66.00
44729;DHT22;30457;53.590;9.922;2023-12-20T09:35:05;10.20;66.00
44729;DHT22;30457;53.590;9.922;2023-12-20T09:39:32;10.20;65.90
44729;DHT22;30457;53.590;9.922;2023-12-20T09:43:59;10.10;65.70
44729;DHT22;30457;53.590;9.922;2023-12-20T09:48:27;10.10;65.00
44729;DHT22;30457;53.590;9.922;2023-12-20T09:52:54;10.10;65.00
44729;DHT22;30457;53.590;9.922;2023-12-20T09:57:24;10.00;63.90
44729;DHT22;30457;53.590;9.922;2023-12-20T10:01:50;10.00;64.60
44729;DHT22;30457;53.590;9.922;2023-12-20T10:06:16;10.00;64.40
44729;DHT22;30457;53.590;9.922;2023-12-20T10:10:42;9.90;64.20
44729;DHT22;30457;53.590;9.922;2023-12-20T10:15:08;9.90;64.10
44729;DHT22;30457;53.590;9.922;2023-12-20T10:19:37;9.90;64.10
44729;DHT22;30457;53.590;9.922;2023-12-20T10:24:03;9.80;63.70
44729;DHT22;30457;53.590;9.922;2023-12-20T10:28:33;9.80;63.80
44729;DHT22;30457;53.590;9.922;2023-12-20T10:32:59;9.80;63.80
44729;DHT22;30457;53.590;9.922;2023-12-20T10:37:25;9.80;64.20
44729;DHT22;30457;53.590;9.922;2023-12-20T10:41:50;9.80;64.20
44729;DHT22;30457;53.590;9.922;2023-12-20T10:46:16;9.80;64.30
44729;DHT22;30457;53.590;9.922;2023-12-20T10:50:42;9.80;64.30
44729;DHT22;30457;53.590;9.922;2023-12-20T10:55:08;9.80;64.50
44729;DHT22;30457;53.590;9.922;2023-12-20T10:59:37;9.80;64.50
44729;DHT22;30457;53.590;9.922;2023-12-20T11:04:06;9.80;64.40
44729;DHT22;30457;53.590;9.922;2023-12-20T11:08:44;9.80;64.30
44729;DHT22;30457;53.590;9.922;2023-12-20T11:13:22;9.80;65.20
44729;DHT22;30457;53.590;9.922;2023-12-20T11:17:58;9.80;64.50
44729;DHT22;30457;53.590;9.922;2023-12-20T11:22:25;9.90;64.60
44729;DHT22;30457;53.590;9.922;2023-12-20T11:26:55;9.80;64.90
44729;DHT22;30457;53.590;9.922;2023-12-20T11:31:21;9.90;65.00
44729;DHT22;30457;53.590;9.922;2023-12-20T11:35:47;9.80;64.90
44729;DHT22;30457;53.590;9.922;2023-12-20T11:40:15;9.90;64.60
44729;DHT22;30457;53.590;9.922;2023-12-20T11:44:42;9.80;64.10
44729;DHT22;30457;53.590;9.922;2023-12-20T11:49:08;9.80;64.30
44729;DHT22;30457;53.590;9.922;2023-12-20T11:53:33;9.70;64.50
44729;DHT22;30457;53.590;9.922;2023-12-20T11:57:59;9.70;65.00
44729;DHT22;30457;53.590;9.922;2023-12-20T12:02:25;9.70;65.20
44729;DHT22;30457;53.590;9.922;2023-12-20T12:06:50;9.70;65.10
44729;DHT22;30457;53.590;9.922;2023-12-20T12:11:16;9.80;65.10
44729;DHT22;30457;53.590;9.922;2023-12-20T12:15:42;9.70;65.00
44729;DHT22;30457;53.590;9.922;2023-12-20T12:20:08;9.80;65.20
44729;DHT22;30457;53.590;9.922;2023-12-20T12:24:35;9.80;65.60
44729;DHT22;30457;53.590;9.922;2023-12-20T12:29:01;9.80;66.00
44729;DHT22;30457;53.590;9.922;2023-12-20T12:33:27;9.90;66.10
44729;DHT22;30457;53.590;9.922;2023-12-20T12:37:53;9.90;65.50
44729;DHT22;30457;53.590;9.922;2023-12-20T12:42:18;10.00;65.40
44729;DHT22;30457;53.590;9.922;2023-12-20T12:46:45;10.10;65.00
44729;DHT22;30457;53.590;9.922;2023-12-20T12:51:11;10.10;64.60
44729;DHT22;30457;53.590;9.922;2023-12-20T12:55:38;10.20;64.10
44729;DHT22;30457;53.590;9.922;2023-12-20T13:00:04;10.20;64.20
44729;DHT22;30457;53.590;9.922;2023-12-20T13:04:33;10.20;63.10
44729;DHT22;30457;53.590;9.922;2023-12-20T13:08:59;10.30;63.10
44729;DHT22;30457;53.590;9.922;2023-12-20T13:13:24;10.30;63.30
44729;DHT22;30457;53.590;9.922;2023-12-20T13:17:50;10.30;62.30
44729;DHT22;30457;53.590;9.922;2023-12-20T13:22:15;10.30;62.50
44729;DHT22;30457;53.590;9.922;2023-12-20T13:26:41;10.30;62.50
44729;DHT22;30457;53.590;9.922;2023-12-20T13:31:07;10.30;62.10
44729;DHT22;30457;53.590;9.922;2023-12-20T13:35:33;10.30;62.30
44729;DHT22;30457;53.590;9.922;2023-12-20T13:39:59;10.20;62.30
44729;DHT22;30457;53.590;9.922;2023-12-20T13:44:25;10.20;62.10
44729;DHT22;30457;53.590;9.922;2023-12-20T13:48:50;10.20;62.00
44729;DHT22;30457;53.590;9.922;2023-12-20T13:53:16;10.20;62.00
44729;DHT22;30457;53.590;9.922;2023-12-20T13:57:41;10.20;61.80
44729;DHT22;30457;53.590;9.922;2023-12-20T14:02:07;10.20;61.70
44729;DHT22;30457;53.590;9.922;2023-12-20T14:06:33;10.20;62.10
44729;DHT22;30457;53.590;9.922;2023-12-20T14:10:58;10.20;61.40
44729;DHT22;30457;53.590;9.922;2023-12-20T14:15:24;10.20;61.80
44729;DHT22;30457;53.590;9.922;2023-12-20T14:19:50;10.20;61.40
44729;DHT22;30457;53.590;9.922;2023-12-20T14:24:17;10.20;60.80
44729;DHT22;30457;53.590;9.922;2023-12-20T14:28:42;10.20;60.60
44729;DHT22;30457;53.590;9.922;2023-12-20T14:33:08;10.20;60.60
44729;DHT22;30457;53.590;9.922;2023-12-20T14:37:34;10.20;59.70
44729;DHT22;30457;53.590;9.922;2023-12-20T14:42:00;10.20;60.20
44729;DHT22;30457;53.590;9.922;2023-12-20T14:46:26;10.20;59.40
44729;DHT22;30457;53.590;9.922;2023-12-20T14:50:51;10.20;59.80
44729;DHT22;30457;53.590;9.922;2023-12-20T14:55:17;10.20;59.70
44729;DHT22;30457;53.590;9.922;2023-12-20T14:59:43;10.10;59.60
44729;DHT22;30457;53.590;9.922;2023-12-20T15:04:09;10.10;59.60
44729;DHT22;30457;53.590;9.922;2023-12-20T15:08:34;10.10;59.90
44729;DHT22;30457;53.590;9.922;2023-12-20T15:13:00;10.10;59.80
44729;DHT22;30457;53.590;9.922;2023-12-20T15:17:26;10.10;60.00
44729;DHT22;30457;53.590;9.922;2023-12-20T15:21:52;10.10;60.00
44729;DHT22;30457;53.590;9.922;2023-12-20T15:26:20;10.10;59.90
44729;DHT22;30457;53.590;9.922;2023-12-20T15:30:46;10.00;59.70
44729;DHT22;30457;53.590;9.922;2023-12-20T15:35:11;10.10;60.10
44729;DHT22;30457;53.590;9.922;2023-12-20T15:39:37;10.00;60.00
44729;DHT22;30457;53.590;9.922;2023-12-20T15:44:03;10.00;59.80
44729;DHT22;30457;53.590;9.922;2023-12-20T15:48:29;9.90;60.00
44729;DHT22;30457;53.590;9.922;2023-12-20T15:52:54;9.90;60.10
44729;DHT22;30457;53.590;9.922;2023-12-20T15:57:20;9.90;60.20
44729;DHT22;30457;53.590;9.922;2023-12-20T16:01:45;9.90;60.10
44729;DHT22;30457;53.590;9.922;2023-12-20T16:06:11;9.90;60.40
44729;DHT22;30457;53.590;9.922;2023-12-20T16:10:37;9.90;60.30
44729;DHT22;30457;53.590;9.922;2023-12-20T16:15:03;9.80;60.10
44729;DHT22;30457;53.590;9.922;2023-12-20T16:19:29;9.80;60.60
44729;DHT22;30457;53.590;9.922;2023-12-20T16:23:54;9.90;60.50
44729;DHT22;30457;53.590;9.922;2023-12-20T16:28:20;9.80;60.70
44729;DHT22;30457;53.590;9.922;2023-12-20T16:32:46;9.80;60.70
44729;DHT22;30457;53.590;9.922;2023-12-20T16:37:11;9.90;61.00
44729;DHT22;30457;53.590;9.922;2023-12-20T16:41:37;9.90;61.10
44729;DHT22;30457;53.590;9.922;2023-12-20T16:46:02;9.90;61.50
44729;DHT22;30457;53.590;9.922;2023-12-20T16:50:28;9.80;61.80
44729;DHT22;30457;53.590;9.922;2023-12-20T16:54:54;9.80;61.40
44729;DHT22;30457;53.590;9.922;2023-12-20T16:59:19;9.70;61.20
44729;DHT22;30457;53.590;9.922;2023-12-20T17:03:45;9.60;61.40
44729;DHT22;30457;53.590;9.922;2023-12-20T17:08:10;9.50;61.60
44729;DHT22;30457;53.590;9.922;2023-12-20T17:12:36;9.50;61.90
44729;DHT22;30457;53.590;9.922;2023-12-20T17:17:01;9.40;62.10
44729;DHT22;30457;53.590;9.922;2023-12-20T17:21:28;9.40;62.40
44729;DHT22;30457;53.590;9.922;2023-12-20T17:25:54;9.30;63.30
44729;DHT22;30457;53.590;9.922;2023-12-20T17:30:20;9.30;62.90
44729;DHT22;30457;53.590;9.922;2023-12-20T17:34:45;9.30;63.20
44729;DHT22;30457;53.590;9.922;2023-12-20T17:39:11;9.30;63.40
44729;DHT22;30457;53.590;9.922;2023-12-20T17:43:36;9.30;63.60
44729;DHT22;30457;53.590;9.922;2023-12-20T17:48:04;9.30;63.70
44729;DHT22;30457;53.590;9.922;2023-12-20T17:52:29;9.30;63.80
44729;DHT22;30457;53.590;9.922;2023-12-20T17:56:55;9.30;64.00
44729;DHT22;30457;53.590;9.922;2023-12-20T18:01:22;9.30;64.00
44729;DHT22;30457;53.590;9.922;2023-12-20T18:05:47;9.30;63.90
44729;DHT22;30457;53.590;9.922;2023-12-20T18:10:14;9.30;63.90
44729;DHT22;30457;53.590;9.922;2023-12-20T18:14:39;9.30;64.10
44729;DHT22;30457;53.590;9.922;2023-12-20T18:19:05;9.30;64.20
44729;DHT22;30457;53.590;9.922;2023-12-20T18:23:31;9.30;64.30
44729;DHT22;30457;53.590;9.922;2023-12-20T18:27:56;9.30;64.30
44729;DHT22;30457;53.590;9.922;2023-12-20T18:32:22;9.40;64.60
44729;DHT22;30457;53.590;9.922;2023-12-20T18:36:50;9.30;64.50
44729;DHT22;30457;53.590;9.922;2023-12-20T18:41:15;9.40;64.60
44729;DHT22;30457;53.590;9.922;2023-12-20T18:45:41;9.40;64.70
44729;DHT22;30457;53.590;9.922;2023-12-20T18:50:07;9.40;64.70
44729;DHT22;30457;53.590;9.922;2023-12-20T18:54:33;9.40;64.70
44729;DHT22;30457;53.590;9.922;2023-12-20T18:58:59;9.40;64.80
44729;DHT22;30457;53.590;9.922;2023-12-20T19:03:24;9.40;64.60
44729;DHT22;30457;53.590;9.922;2023-12-20T19:07:50;9.40;65.50
44729;DHT22;30457;53.590;9.922;2023-12-20T19:12:17;9.40;64.80
44729;DHT22;30457;53.590;9.922;2023-12-20T19:16:43;9.40;64.90
44729;DHT22;30457;53.590;9.922;2023-12-20T19:21:09;9.50;64.90
44729;DHT22;30457;53.590;9.922;2023-12-20T19:25:34;9.40;64.80
44729;DHT22;30457;53.590;9.922;2023-12-20T19:30:00;9.50;64.70
44729;DHT22;30457;53.590;9.922;2023-12-20T19:34:26;9.50;64.70
44729;DHT22;30457;53.590;9.922;2023-12-20T19:38:51;9.50;64.70
44729;DHT22;30457;53.590;9.922;2023-12-20T19:43:17;9.50;64.80
44729;DHT22;30457;53.590;9.922;2023-12-20T19:47:49;9.50;64.80
44729;DHT22;30457;53.590;9.922;2023-12-20T19:52:15;9.50;64.80
44729;DHT22;30457;53.590;9.922;2023-12-20T19:56:41;9.50;64.70
44729;DHT22;30457;53.590;9.922;2023-12-20T20:01:06;9.50;64.70
44729;DHT22;30457;53.590;9.922;2023-12-20T20:05:32;9.50;64.70
44729;DHT22;30457;53.590;9.922;2023-12-20T20:09:58;9.50;64.80
44729;DHT22;30457;53.590;9.922;2023-12-20T20:14:24;9.50;64.90
44729;DHT22;30457;53.590;9.922;2023-12-20T20:18:52;9.50;65.00
44729;DHT22;30457;53.590;9.922;2023-12-20T20:23:18;9.50;65.10
44729;DHT22;30457;53.590;9.922;2023-12-20T20:27:43;9.60;65.20
44729;DHT22;30457;53.590;9.922;2023-12-20T20:32:09;9.60;65.40
44729;DHT22;30457;53.590;9.922;2023-12-20T20:36:35;9.60;65.40
44729;DHT22;30457;53.590;9.922;2023-12-20T20:41:00;9.60;65.40
44729;DHT22;30457;53.590;9.922;2023-12-20T20:45:26;9.60;65.50
44729;DHT22;30457;53.590;9.922;2023-12-20T20:49:51;9.60;65.70
44729;DHT22;30457;53.590;9.922;2023-12-20T20:54:18;9.60;65.70
44729;DHT22;30457;53.590;9.922;2023-12-20T20:58:44;9.60;65.80
44729;DHT22;30457;53.590;9.922;2023-12-20T21:03:10;9.70;65.90
44729;DHT22;30457;53.590;9.922;2023-12-20T21:07:36;9.70;66.00
44729;DHT22;30457;53.590;9.922;2023-12-20T21:12:02;9.70;66.00
44729;DHT22;30457;53.590;9.922;2023-12-20T21:16:27;9.70;66.10
44729;DHT22;30457;53.590;9.922;2023-12-20T21:20:53;9.70;66.20
44729;DHT22;30457;53.590;9.922;2023-12-20T21:25:19;9.70;67.10
44729;DHT22;30457;53.590;9.922;2023-12-20T21:29:46;9.80;66.40
44729;DHT22;30457;53.590;9.922;2023-12-20T21:34:11;9.80;66.50
44729;DHT22;30457;53.590;9.922;2023-12-20T21:38:37;9.80;66.50
44729;DHT22;30457;53.590;9.922;2023-12-20T21:43:02;9.80;66.60
44729;DHT22;30457;53.590;9.922;2023-12-20T21:47:28;9.90;66.70
44729;DHT22;30457;53.590;9.922;2023-12-20T21:51:53;9.90;66.70
44729;DHT22;30457;53.590;9.922;2023-12-20T21:56:19;9.90;66.70
44729;DHT22;30457;53.590;9.922;2023-12-20T22:00:44;10.00;66.60
44729;DHT22;30457;53.590;9.922;2023-12-20T22:05:10;10.00;66.50
44729;DHT22;30457;53.590;9.922;2023-12-20T22:09:35;10.00;66.30
44729;DHT22;30457;53.590;9.922;2023-12-20T22:14:01;10.10;66.30
44729;DHT22;30457;53.590;9.922;2023-12-20T22:18:26;10.10;66.40
44729;DHT22;30457;53.590;9.922;2023-12-20T22:22:52;10.10;66.50
44729;DHT22;30457;53.590;9.922;2023-12-20T22:27:17;10.10;66.40
44729;DHT22;30457;53.590;9.922;2023-12-20T22:31:43;10.20;66.40
44729;DHT22;30457;53.590;9.922;2023-12-20T22:36:10;10.20;66.40
44729;DHT22;30457;53.590;9.922;2023-12-20T22:40:36;10.20;66.60
44729;DHT22;30457;53.590;9.922;2023-12-20T22:45:01;10.20;66.90
44729;DHT22;30457;53.590;9.922;2023-12-20T22:49:27;10.30;67.10
44729;DHT22;30457;53.590;9.922;2023-12-20T22:53:52;10.30;67.20
44729;DHT22;30457;53.590;9.922;2023-12-20T22:58:21;10.30;67.40
44729;DHT22;30457;53.590;9.922;2023-12-20T23:02:46;10.40;67.90
44729;DHT22;30457;53.590;9.922;2023-12-20T23:07:12;10.50;68.20
44729;DHT22;30457;53.590;9.922;2023-12-20T23:11:38;10.50;68.50
44729;DHT22;30457;53.590;9.922;2023-12-20T23:16:03;10.50;69.20
44729;DHT22;30457;53.590;9.922;2023-12-20T23:20:29;10.60;69.40
44729;DHT22;30457;53.590;9.922;2023-12-20T23:24:55;10.70;69.60
44729;DHT22;30457;53.590;9.922;2023-12-20T23:29:20;10.80;69.60
44729;DHT22;30457;53.590;9.922;2023-12-20T23:33:46;10.90;69.90
44729;DHT22;30457;53.590;9.922;2023-12-20T23:38:11;11.00;70.00
44729;DHT22;30457;53.590;9.922;2023-12-20T23:42:37;11.10;70.50
44729;DHT22;30457;53.590;9.922;2023-12-20T23:47:04;11.10;70.30
44729;DHT22;30457;53.590;9.922;2023-12-20T23:51:29;11.20;70.40
44729;DHT22;30457;53.590;9.922;2023-12-20T23:55:55;11.30;70.90
